Terminal Aerodrome Forecast
Issued by NWS Cleveland, OH

Home | Current Version | Previous Version | Graphics & Text | Print | Product List | Glossary Off
Versions: 1 2 3 4 5 6 7 8 9 10 11 12 13 14 15 16 17 18 19

000
FTUS41 KCLE 220500
TAFERI
TAF
KERI 220520Z 2206/2306 VRB03KT P6SM VCSH SCT015 OVC035
      TEMPO 2206/2210 3SM -TSRA BR BKN015 OVC025CB
     FM221300 VRB03KT P6SM BKN015 OVC025
     FM221700 01008KT P6SM BKN035
     FM230000 VRB03KT P6SM FEW040 BKN100=

USA.gov is the U.S. government's official web portal to all federal, state and local government web resources and services.